sensor_id;sensor_type;location;lat;lon;timestamp;pressure;altitude;pressure_sealevel;temperature;humidity
35647;BME280;28680;45.642;13.756;2023-05-19T00:01:51;101448.03;;;18.26;100.00
35647;BME280;28680;45.642;13.756;2023-05-19T00:04:18;101449.78;;;18.18;100.00
35647;BME280;28680;45.642;13.756;2023-05-19T00:06:49;101453.22;;;18.28;100.00
35647;BME280;28680;45.642;13.756;2023-05-19T00:09:16;101436.81;;;18.59;100.00
35647;BME280;28680;45.642;13.756;2023-05-19T00:11:43;101443.38;;;18.46;100.00
35647;BME280;28680;45.642;13.756;2023-05-19T00:14:09;101454.53;;;18.50;100.00
35647;BME280;28680;45.642;13.756;2023-05-19T00:16:37;101458.84;;;17.79;100.00
35647;BME280;28680;45.642;13.756;2023-05-19T00:19:05;101439.63;;;17.95;100.00
35647;BME280;28680;45.642;13.756;2023-05-19T00:21:34;101435.97;;;18.14;100.00
35647;BME280;28680;45.642;13.756;2023-05-19T00:24:03;101444.31;;;18.19;100.00
35647;BME280;28680;45.642;13.756;2023-05-19T00:26:29;101430.56;;;18.42;100.00
35647;BME280;28680;45.642;13.756;2023-05-19T00:28:55;101431.38;;;18.42;100.00
35647;BME280;28680;45.642;13.756;2023-05-19T00:31:21;101445.31;;;18.00;100.00
35647;BME280;28680;45.642;13.756;2023-05-19T00:33:47;101438.50;;;17.98;100.00
35647;BME280;28680;45.642;13.756;2023-05-19T00:36:12;101436.66;;;18.16;100.00
35647;BME280;28680;45.642;13.756;2023-05-19T00:38:41;101443.56;;;18.27;100.00
35647;BME280;28680;45.642;13.756;2023-05-19T00:41:07;101442.03;;;18.06;100.00
35647;BME280;28680;45.642;13.756;2023-05-19T00:43:33;101432.69;;;18.20;100.00
35647;BME280;28680;45.642;13.756;2023-05-19T00:45:59;101435.44;;;18.10;100.00
35647;BME280;28680;45.642;13.756;2023-05-19T00:48:25;101436.22;;;18.21;100.00
35647;BME280;28680;45.642;13.756;2023-05-19T00:50:56;101444.84;;;18.05;100.00
35647;BME280;28680;45.642;13.756;2023-05-19T00:53:33;101440.69;;;18.02;100.00
35647;BME280;28680;45.642;13.756;2023-05-19T00:56:00;101438.63;;;18.14;100.00
35647;BME280;28680;45.642;13.756;2023-05-19T00:58:26;101441.19;;;17.88;100.00
35647;BME280;28680;45.642;13.756;2023-05-19T01:00:58;101436.47;;;17.82;100.00
35647;BME280;28680;45.642;13.756;2023-05-19T01:03:32;101439.72;;;17.30;100.00
35647;BME280;28680;45.642;13.756;2023-05-19T01:06:01;101436.53;;;17.72;100.00
35647;BME280;28680;45.642;13.756;2023-05-19T01:08:37;101427.34;;;17.94;100.00
35647;BME280;28680;45.642;13.756;2023-05-19T01:11:05;101424.34;;;18.33;100.00
35647;BME280;28680;45.642;13.756;2023-05-19T01:13:33;101429.13;;;17.93;100.00
35647;BME280;28680;45.642;13.756;2023-05-19T01:18:55;101429.06;;;17.85;100.00
35647;BME280;28680;45.642;13.756;2023-05-19T01:24:39;101416.53;;;17.78;100.00
35647;BME280;28680;45.642;13.756;2023-05-19T01:27:20;101423.00;;;17.65;100.00
35647;BME280;28680;45.642;13.756;2023-05-19T01:30:29;101416.06;;;18.18;100.00
35647;BME280;28680;45.642;13.756;2023-05-19T01:33:03;101410.47;;;18.21;100.00
35647;BME280;28680;45.642;13.756;2023-05-19T01:35:31;101421.56;;;18.17;100.00
35647;BME280;28680;45.642;13.756;2023-05-19T01:38:00;101422.66;;;17.60;100.00
35647;BME280;28680;45.642;13.756;2023-05-19T01:40:27;101419.00;;;17.61;100.00
35647;BME280;28680;45.642;13.756;2023-05-19T01:42:58;101423.28;;;17.44;100.00
35647;BME280;28680;45.642;13.756;2023-05-19T01:45:28;101420.75;;;17.52;100.00
35647;BME280;28680;45.642;13.756;2023-05-19T01:47:58;101424.03;;;17.37;100.00
35647;BME280;28680;45.642;13.756;2023-05-19T01:50:25;101416.59;;;17.22;100.00
35647;BME280;28680;45.642;13.756;2023-05-19T01:52:52;101413.22;;;17.48;100.00
35647;BME280;28680;45.642;13.756;2023-05-19T01:55:18;101418.16;;;17.61;100.00
35647;BME280;28680;45.642;13.756;2023-05-19T02:01:02;101421.81;;;18.05;100.00
35647;BME280;28680;45.642;13.756;2023-05-19T02:03:41;101419.97;;;18.06;100.00
35647;BME280;28680;45.642;13.756;2023-05-19T02:06:21;101422.72;;;17.68;100.00
35647;BME280;28680;45.642;13.756;2023-05-19T02:12:34;101425.88;;;17.54;100.00
35647;BME280;28680;45.642;13.756;2023-05-19T02:15:13;101417.91;;;17.54;100.00
35647;BME280;28680;45.642;13.756;2023-05-19T02:17:43;101422.06;;;17.84;100.00
35647;BME280;28680;45.642;13.756;2023-05-19T02:20:14;101419.59;;;17.73;100.00
35647;BME280;28680;45.642;13.756;2023-05-19T02:22:40;101436.91;;;17.31;100.00
35647;BME280;28680;45.642;13.756;2023-05-19T02:25:07;101415.06;;;17.65;100.00
35647;BME280;28680;45.642;13.756;2023-05-19T02:27:35;101430.16;;;17.37;100.00
35647;BME280;28680;45.642;13.756;2023-05-19T02:30:05;101420.13;;;17.59;100.00
35647;BME280;28680;45.642;13.756;2023-05-19T02:32:31;101432.41;;;17.42;100.00
35647;BME280;28680;45.642;13.756;2023-05-19T02:34:57;101423.94;;;17.74;100.00
35647;BME280;28680;45.642;13.756;2023-05-19T02:37:25;101422.47;;;17.89;100.00
35647;BME280;28680;45.642;13.756;2023-05-19T02:39:53;101413.38;;;18.10;100.00
35647;BME280;28680;45.642;13.756;2023-05-19T02:42:21;101417.03;;;18.35;100.00
35647;BME280;28680;45.642;13.756;2023-05-19T02:44:48;101411.69;;;17.91;100.00
35647;BME280;28680;45.642;13.756;2023-05-19T02:47:14;101411.38;;;18.12;100.00
35647;BME280;28680;45.642;13.756;2023-05-19T02:49:40;101405.47;;;18.00;100.00
35647;BME280;28680;45.642;13.756;2023-05-19T02:52:07;101406.31;;;18.19;100.00
35647;BME280;28680;45.642;13.756;2023-05-19T02:54:34;101412.84;;;17.88;100.00
35647;BME280;28680;45.642;13.756;2023-05-19T02:57:01;101408.81;;;17.84;100.00
35647;BME280;28680;45.642;13.756;2023-05-19T02:59:27;101400.78;;;17.94;100.00
35647;BME280;28680;45.642;13.756;2023-05-19T03:02:00;101405.72;;;17.89;100.00
35647;BME280;28680;45.642;13.756;2023-05-19T03:04:27;101408.13;;;17.37;100.00
35647;BME280;28680;45.642;13.756;2023-05-19T03:06:54;101396.06;;;17.88;100.00
35647;BME280;28680;45.642;13.756;2023-05-19T03:09:20;101405.78;;;18.15;100.00
35647;BME280;28680;45.642;13.756;2023-05-19T03:11:46;101403.97;;;17.98;100.00
35647;BME280;28680;45.642;13.756;2023-05-19T03:14:12;101401.69;;;17.85;100.00
35647;BME280;28680;45.642;13.756;2023-05-19T03:16:41;101412.91;;;17.97;100.00
35647;BME280;28680;45.642;13.756;2023-05-19T03:19:07;101414.16;;;17.57;100.00
35647;BME280;28680;45.642;13.756;2023-05-19T03:21:34;101408.66;;;17.86;100.00
35647;BME280;28680;45.642;13.756;2023-05-19T03:24:00;101401.97;;;18.18;100.00
35647;BME280;28680;45.642;13.756;2023-05-19T03:26:26;101404.03;;;18.06;100.00
35647;BME280;28680;45.642;13.756;2023-05-19T03:28:56;101391.97;;;17.93;100.00
35647;BME280;28680;45.642;13.756;2023-05-19T03:31:22;101404.13;;;17.96;100.00
35647;BME280;28680;45.642;13.756;2023-05-19T03:33:48;101406.63;;;17.98;100.00
35647;BME280;28680;45.642;13.756;2023-05-19T03:36:13;101402.13;;;18.16;100.00
35647;BME280;28680;45.642;13.756;2023-05-19T03:38:39;101413.38;;;17.92;100.00
35647;BME280;28680;45.642;13.756;2023-05-19T03:41:06;101407.09;;;17.65;100.00
35647;BME280;28680;45.642;13.756;2023-05-19T03:43:32;101399.13;;;17.65;100.00
35647;BME280;28680;45.642;13.756;2023-05-19T03:46:07;101403.31;;;17.68;100.00
35647;BME280;28680;45.642;13.756;2023-05-19T03:48:33;101409.16;;;17.71;100.00
35647;BME280;28680;45.642;13.756;2023-05-19T03:50:59;101405.28;;;17.66;100.00
35647;BME280;28680;45.642;13.756;2023-05-19T03:53:25;101396.47;;;17.65;100.00
35647;BME280;28680;45.642;13.756;2023-05-19T03:55:51;101413.25;;;17.66;100.00
35647;BME280;28680;45.642;13.756;2023-05-19T03:58:16;101414.50;;;17.44;100.00
35647;BME280;28680;45.642;13.756;2023-05-19T04:00:43;101411.34;;;17.58;100.00
35647;BME280;28680;45.642;13.756;2023-05-19T04:06:42;101396.72;;;17.26;100.00
35647;BME280;28680;45.642;13.756;2023-05-19T04:09:13;101411.72;;;17.63;100.00
35647;BME280;28680;45.642;13.756;2023-05-19T04:11:41;101406.34;;;17.55;100.00
35647;BME280;28680;45.642;13.756;2023-05-19T04:14:08;101394.13;;;17.62;100.00
35647;BME280;28680;45.642;13.756;2023-05-19T04:17:09;101407.25;;;17.64;100.00
35647;BME280;28680;45.642;13.756;2023-05-19T04:19:35;101417.97;;;17.72;100.00
35647;BME280;28680;45.642;13.756;2023-05-19T04:22:01;101413.00;;;17.59;100.00
35647;BME280;28680;45.642;13.756;2023-05-19T04:24:27;101412.31;;;17.85;100.00
35647;BME280;28680;45.642;13.756;2023-05-19T04:26:53;101416.72;;;17.94;100.00
35647;BME280;28680;45.642;13.756;2023-05-19T04:29:19;101415.28;;;18.00;100.00
35647;BME280;28680;45.642;13.756;2023-05-19T04:31:45;101413.22;;;17.93;100.00
35647;BME280;28680;45.642;13.756;2023-05-19T04:34:11;101414.22;;;17.47;100.00
35647;BME280;28680;45.642;13.756;2023-05-19T04:36:37;101412.78;;;17.70;100.00
35647;BME280;28680;45.642;13.756;2023-05-19T04:39:03;101421.09;;;18.03;100.00
35647;BME280;28680;45.642;13.756;2023-05-19T04:41:33;101417.47;;;18.22;100.00
35647;BME280;28680;45.642;13.756;2023-05-19T04:43:59;101414.72;;;18.32;100.00
35647;BME280;28680;45.642;13.756;2023-05-19T04:46:26;101412.69;;;18.08;100.00
35647;BME280;28680;45.642;13.756;2023-05-19T04:48:54;101408.47;;;18.41;100.00
35647;BME280;28680;45.642;13.756;2023-05-19T04:51:22;101418.91;;;18.43;100.00
35647;BME280;28680;45.642;13.756;2023-05-19T04:53:58;101407.31;;;18.70;100.00
35647;BME280;28680;45.642;13.756;2023-05-19T04:56:24;101405.53;;;18.26;100.00
35647;BME280;28680;45.642;13.756;2023-05-19T04:58:51;101419.69;;;18.35;100.00
35647;BME280;28680;45.642;13.756;2023-05-19T05:01:18;101426.81;;;18.53;100.00
35647;BME280;28680;45.642;13.756;2023-05-19T05:03:46;101413.56;;;18.35;100.00
35647;BME280;28680;45.642;13.756;2023-05-19T05:06:12;101419.78;;;18.25;100.00
35647;BME280;28680;45.642;13.756;2023-05-19T05:08:38;101420.31;;;18.47;100.00
35647;BME280;28680;45.642;13.756;2023-05-19T05:11:06;101420.63;;;18.26;100.00
35647;BME280;28680;45.642;13.756;2023-05-19T05:13:32;101430.06;;;18.46;100.00
35647;BME280;28680;45.642;13.756;2023-05-19T05:15:59;101428.88;;;18.41;100.00
35647;BME280;28680;45.642;13.756;2023-05-19T05:18:26;101426.84;;;18.35;100.00
35647;BME280;28680;45.642;13.756;2023-05-19T05:20:52;101428.47;;;18.09;100.00
35647;BME280;28680;45.642;13.756;2023-05-19T05:23:20;101441.81;;;18.18;100.00
35647;BME280;28680;45.642;13.756;2023-05-19T05:25:46;101432.16;;;18.35;100.00
35647;BME280;28680;45.642;13.756;2023-05-19T05:28:12;101444.69;;;18.06;100.00
35647;BME280;28680;45.642;13.756;2023-05-19T05:30:39;101437.41;;;18.26;100.00
35647;BME280;28680;45.642;13.756;2023-05-19T05:33:06;101438.88;;;18.21;100.00
35647;BME280;28680;45.642;13.756;2023-05-19T05:35:32;101436.66;;;17.98;100.00
35647;BME280;28680;45.642;13.756;2023-05-19T05:37:58;101441.66;;;18.01;100.00
35647;BME280;28680;45.642;13.756;2023-05-19T05:40:24;101433.75;;;18.27;100.00
35647;BME280;28680;45.642;13.756;2023-05-19T05:42:50;101437.19;;;18.20;100.00
35647;BME280;28680;45.642;13.756;2023-05-19T05:45:16;101454.47;;;18.24;100.00
35647;BME280;28680;45.642;13.756;2023-05-19T05:47:42;101447.72;;;18.47;100.00
35647;BME280;28680;45.642;13.756;2023-05-19T05:50:09;101449.41;;;18.30;100.00
35647;BME280;28680;45.642;13.756;2023-05-19T05:52:36;101455.84;;;18.46;100.00
35647;BME280;28680;45.642;13.756;2023-05-19T05:55:04;101445.31;;;18.62;100.00
35647;BME280;28680;45.642;13.756;2023-05-19T05:57:30;101453.38;;;18.79;100.00
35647;BME280;28680;45.642;13.756;2023-05-19T05:59:56;101452.69;;;18.50;100.00
35647;BME280;28680;45.642;13.756;2023-05-19T06:02:22;101446.88;;;18.47;100.00
35647;BME280;28680;45.642;13.756;2023-05-19T06:04:48;101448.09;;;18.53;100.00
35647;BME280;28680;45.642;13.756;2023-05-19T06:07:13;101455.63;;;18.65;100.00
35647;BME280;28680;45.642;13.756;2023-05-19T06:09:40;101461.72;;;18.58;100.00
35647;BME280;28680;45.642;13.756;2023-05-19T06:12:06;101467.84;;;18.94;100.00
35647;BME280;28680;45.642;13.756;2023-05-19T06:14:32;101464.28;;;18.67;100.00
35647;BME280;28680;45.642;13.756;2023-05-19T06:16:58;101460.53;;;18.78;100.00
35647;BME280;28680;45.642;13.756;2023-05-19T06:19:24;101464.38;;;18.58;100.00
35647;BME280;28680;45.642;13.756;2023-05-19T06:21:50;101463.31;;;18.68;100.00
35647;BME280;28680;45.642;13.756;2023-05-19T06:24:18;101463.06;;;18.80;100.00
35647;BME280;28680;45.642;13.756;2023-05-19T06:26:44;101465.97;;;18.68;100.00
35647;BME280;28680;45.642;13.756;2023-05-19T06:29:10;101456.38;;;18.76;100.00
35647;BME280;28680;45.642;13.756;2023-05-19T06:31:36;101471.78;;;18.90;100.00
35647;BME280;28680;45.642;13.756;2023-05-19T06:34:02;101458.09;;;18.59;100.00
35647;BME280;28680;45.642;13.756;2023-05-19T06:36:27;101465.84;;;18.78;100.00
35647;BME280;28680;45.642;13.756;2023-05-19T06:38:54;101466.97;;;19.20;100.00
35647;BME280;28680;45.642;13.756;2023-05-19T06:41:20;101475.25;;;19.17;100.00
35647;BME280;28680;45.642;13.756;2023-05-19T06:43:46;101466.53;;;18.98;100.00
35647;BME280;28680;45.642;13.756;2023-05-19T06:46:12;101476.28;;;18.89;100.00
35647;BME280;28680;45.642;13.756;2023-05-19T06:48:38;101480.78;;;19.23;100.00
35647;BME280;28680;45.642;13.756;2023-05-19T06:51:04;101474.28;;;19.60;100.00
35647;BME280;28680;45.642;13.756;2023-05-19T06:53:44;101482.38;;;19.51;100.00
35647;BME280;28680;45.642;13.756;2023-05-19T06:56:10;101484.09;;;19.17;100.00
35647;BME280;28680;45.642;13.756;2023-05-19T06:58:35;101483.84;;;19.45;100.00
35647;BME280;28680;45.642;13.756;2023-05-19T07:01:09;101484.06;;;19.52;100.00
35647;BME280;28680;45.642;13.756;2023-05-19T07:03:35;101492.84;;;19.44;100.00
35647;BME280;28680;45.642;13.756;2023-05-19T07:06:01;101490.88;;;19.46;100.00
35647;BME280;28680;45.642;13.756;2023-05-19T07:08:28;101487.84;;;19.41;100.00
35647;BME280;28680;45.642;13.756;2023-05-19T07:10:53;101484.44;;;19.57;100.00
35647;BME280;28680;45.642;13.756;2023-05-19T07:13:22;101489.00;;;19.73;100.00
35647;BME280;28680;45.642;13.756;2023-05-19T07:15:48;101480.81;;;19.66;100.00
35647;BME280;28680;45.642;13.756;2023-05-19T07:18:14;101485.63;;;19.71;100.00
35647;BME280;28680;45.642;13.756;2023-05-19T07:20:40;101490.66;;;19.74;100.00
35647;BME280;28680;45.642;13.756;2023-05-19T07:23:06;101484.03;;;19.94;100.00
35647;BME280;28680;45.642;13.756;2023-05-19T07:25:32;101489.50;;;19.76;100.00
35647;BME280;28680;45.642;13.756;2023-05-19T07:27:58;101497.81;;;19.73;100.00
35647;BME280;28680;45.642;13.756;2023-05-19T07:30:27;101499.00;;;19.79;100.00
35647;BME280;28680;45.642;13.756;2023-05-19T07:32:53;101496.16;;;19.80;100.00
35647;BME280;28680;45.642;13.756;2023-05-19T07:35:19;101494.38;;;19.89;100.00
35647;BME280;28680;45.642;13.756;2023-05-19T07:37:48;101481.88;;;19.81;100.00
35647;BME280;28680;45.642;13.756;2023-05-19T07:40:14;101488.53;;;19.85;100.00
35647;BME280;28680;45.642;13.756;2023-05-19T07:42:40;101488.03;;;19.90;100.00
35647;BME280;28680;45.642;13.756;2023-05-19T07:45:07;101485.88;;;19.94;100.00
35647;BME280;28680;45.642;13.756;2023-05-19T07:47:33;101479.22;;;19.98;100.00
35647;BME280;28680;45.642;13.756;2023-05-19T07:49:59;101483.09;;;20.12;100.00
35647;BME280;28680;45.642;13.756;2023-05-19T07:52:25;101487.25;;;20.14;100.00
35647;BME280;28680;45.642;13.756;2023-05-19T07:54:51;101494.75;;;20.19;100.00
35647;BME280;28680;45.642;13.756;2023-05-19T07:57:17;101483.91;;;20.12;100.00
35647;BME280;28680;45.642;13.756;2023-05-19T07:59:44;101483.09;;;20.20;100.00
35647;BME280;28680;45.642;13.756;2023-05-19T08:02:10;101472.94;;;20.23;100.00
35647;BME280;28680;45.642;13.756;2023-05-19T08:04:38;101474.94;;;20.21;100.00
35647;BME280;28680;45.642;13.756;2023-05-19T08:07:04;101473.09;;;20.22;100.00
35647;BME280;28680;45.642;13.756;2023-05-19T08:09:39;101488.75;;;20.25;100.00
35647;BME280;28680;45.642;13.756;2023-05-19T08:12:05;101485.94;;;20.27;100.00
35647;BME280;28680;45.642;13.756;2023-05-19T08:14:32;101490.09;;;20.45;100.00
35647;BME280;28680;45.642;13.756;2023-05-19T08:16:59;101486.25;;;20.48;100.00
35647;BME280;28680;45.642;13.756;2023-05-19T08:19:25;101479.94;;;20.57;100.00
35647;BME280;28680;45.642;13.756;2023-05-19T08:21:51;101490.78;;;20.64;100.00
35647;BME280;28680;45.642;13.756;2023-05-19T08:24:17;101491.94;;;20.70;100.00
35647;BME280;28680;45.642;13.756;2023-05-19T08:26:43;101496.75;;;20.66;100.00
35647;BME280;28680;45.642;13.756;2023-05-19T08:29:09;101502.28;;;20.73;100.00
35647;BME280;28680;45.642;13.756;2023-05-19T08:31:35;101504.44;;;20.77;100.00
35647;BME280;28680;45.642;13.756;2023-05-19T08:34:01;101500.09;;;20.84;100.00
35647;BME280;28680;45.642;13.756;2023-05-19T08:36:26;101505.13;;;20.79;100.00
35647;BME280;28680;45.642;13.756;2023-05-19T08:38:53;101510.75;;;20.93;100.00
35647;BME280;28680;45.642;13.756;2023-05-19T08:41:19;101505.91;;;21.05;100.00
35647;BME280;28680;45.642;13.756;2023-05-19T08:43:46;101518.41;;;21.04;100.00
35647;BME280;28680;45.642;13.756;2023-05-19T08:46:13;101512.72;;;21.07;100.00
35647;BME280;28680;45.642;13.756;2023-05-19T08:48:43;101510.88;;;21.16;100.00
35647;BME280;28680;45.642;13.756;2023-05-19T08:51:32;101511.19;;;21.13;100.00
35647;BME280;28680;45.642;13.756;2023-05-19T08:54:14;101523.06;;;21.10;100.00
35647;BME280;28680;45.642;13.756;2023-05-19T08:56:51;101526.34;;;21.20;100.00
35647;BME280;28680;45.642;13.756;2023-05-19T08:59:17;101532.66;;;21.36;100.00
35647;BME280;28680;45.642;13.756;2023-05-19T09:01:44;101512.44;;;21.41;100.00
35647;BME280;28680;45.642;13.756;2023-05-19T09:04:11;101526.81;;;21.40;100.00
35647;BME280;28680;45.642;13.756;2023-05-19T09:06:37;101529.31;;;21.42;100.00
35647;BME280;28680;45.642;13.756;2023-05-19T09:09:06;101529.47;;;21.49;100.00
35647;BME280;28680;45.642;13.756;2023-05-19T09:11:33;101527.28;;;21.52;100.00
35647;BME280;28680;45.642;13.756;2023-05-19T09:14:03;101528.13;;;21.53;100.00
35647;BME280;28680;45.642;13.756;2023-05-19T09:16:29;101526.31;;;21.53;100.00
35647;BME280;28680;45.642;13.756;2023-05-19T09:18:57;101533.13;;;21.56;100.00
35647;BME280;28680;45.642;13.756;2023-05-19T09:21:41;101534.81;;;21.57;100.00
35647;BME280;28680;45.642;13.756;2023-05-19T09:24:08;101532.91;;;21.66;100.00
35647;BME280;28680;45.642;13.756;2023-05-19T09:26:42;101537.53;;;21.80;100.00
35647;BME280;28680;45.642;13.756;2023-05-19T09:29:17;101534.81;;;21.88;100.00
35647;BME280;28680;45.642;13.756;2023-05-19T09:31:54;101532.31;;;21.87;100.00
35647;BME280;28680;45.642;13.756;2023-05-19T09:34:25;101537.78;;;21.93;100.00
35647;BME280;28680;45.642;13.756;2023-05-19T09:36:52;101534.25;;;22.01;100.00
35647;BME280;28680;45.642;13.756;2023-05-19T09:39:23;101536.84;;;22.09;100.00
35647;BME280;28680;45.642;13.756;2023-05-19T09:41:54;101535.78;;;22.18;100.00
35647;BME280;28680;45.642;13.756;2023-05-19T09:44:24;101534.41;;;22.31;100.00
35647;BME280;28680;45.642;13.756;2023-05-19T09:46:55;101530.13;;;22.45;100.00
35647;BME280;28680;45.642;13.756;2023-05-19T09:49:23;101531.25;;;22.50;100.00
35647;BME280;28680;45.642;13.756;2023-05-19T09:51:56;101532.75;;;22.68;100.00
35647;BME280;28680;45.642;13.756;2023-05-19T09:54:23;101524.25;;;22.64;100.00
35647;BME280;28680;45.642;13.756;2023-05-19T09:57:00;101522.97;;;22.60;100.00
35647;BME280;28680;45.642;13.756;2023-05-19T09:59:28;101524.25;;;22.64;100.00
35647;BME280;28680;45.642;13.756;2023-05-19T10:01:57;101519.03;;;22.71;100.00
35647;BME280;28680;45.642;13.756;2023-05-19T10:04:26;101518.47;;;22.75;100.00
35647;BME280;28680;45.642;13.756;2023-05-19T10:06:57;101514.25;;;22.81;100.00
35647;BME280;28680;45.642;13.756;2023-05-19T10:09:27;101514.25;;;22.81;100.00
35647;BME280;28680;45.642;13.756;2023-05-19T10:11:55;101516.88;;;22.89;100.00
35647;BME280;28680;45.642;13.756;2023-05-19T10:14:23;101511.41;;;22.97;100.00
35647;BME280;28680;45.642;13.756;2023-05-19T10:16:51;101517.09;;;23.18;100.00
35647;BME280;28680;45.642;13.756;2023-05-19T10:19:26;101519.50;;;23.42;100.00
35647;BME280;28680;45.642;13.756;2023-05-19T10:21:52;101510.31;;;23.51;100.00
35647;BME280;28680;45.642;13.756;2023-05-19T10:24:19;101511.81;;;23.39;100.00
35647;BME280;28680;45.642;13.756;2023-05-19T10:27:06;101508.69;;;23.21;100.00
35647;BME280;28680;45.642;13.756;2023-05-19T10:29:37;101504.44;;;23.11;100.00
35647;BME280;28680;45.642;13.756;2023-05-19T10:32:10;101501.94;;;23.25;100.00
35647;BME280;28680;45.642;13.756;2023-05-19T10:35:15;101498.78;;;23.36;100.00
35647;BME280;28680;45.642;13.756;2023-05-19T10:41:09;101502.53;;;23.86;100.00
35647;BME280;28680;45.642;13.756;2023-05-19T10:46:44;101500.19;;;23.83;100.00
35647;BME280;28680;45.642;13.756;2023-05-19T10:49:20;101488.66;;;23.83;100.00
35647;BME280;28680;45.642;13.756;2023-05-19T10:51:47;101493.78;;;23.99;100.00
35647;BME280;28680;45.642;13.756;2023-05-19T10:54:13;101496.34;;;24.07;100.00
35647;BME280;28680;45.642;13.756;2023-05-19T10:56:43;101492.00;;;24.28;100.00
35647;BME280;28680;45.642;13.756;2023-05-19T10:59:35;101488.94;;;24.52;100.00
35647;BME280;28680;45.642;13.756;2023-05-19T11:02:05;101483.56;;;24.52;100.00
35647;BME280;28680;45.642;13.756;2023-05-19T11:04:48;101488.06;;;24.74;100.00
35647;BME280;28680;45.642;13.756;2023-05-19T11:07:21;101479.19;;;24.73;100.00
35647;BME280;28680;45.642;13.756;2023-05-19T11:09:56;101464.28;;;24.70;100.00
35647;BME280;28680;45.642;13.756;2023-05-19T11:12:22;101463.50;;;24.77;100.00
35647;BME280;28680;45.642;13.756;2023-05-19T11:14:52;101473.00;;;24.73;100.00
35647;BME280;28680;45.642;13.756;2023-05-19T11:17:23;101460.97;;;24.68;100.00
35647;BME280;28680;45.642;13.756;2023-05-19T11:19:55;101456.66;;;24.74;100.00
35647;BME280;28680;45.642;13.756;2023-05-19T11:22:26;101452.44;;;24.93;100.00
35647;BME280;28680;45.642;13.756;2023-05-19T11:24:56;101451.25;;;25.02;100.00
35647;BME280;28680;45.642;13.756;2023-05-19T11:27:31;101452.56;;;25.13;100.00
35647;BME280;28680;45.642;13.756;2023-05-19T11:29:58;101446.50;;;25.04;100.00
35647;BME280;28680;45.642;13.756;2023-05-19T11:32:30;101436.00;;;25.03;100.00
35647;BME280;28680;45.642;13.756;2023-05-19T11:34:58;101442.34;;;25.30;100.00
35647;BME280;28680;45.642;13.756;2023-05-19T11:37:26;101451.06;;;25.45;100.00
35647;BME280;28680;45.642;13.756;2023-05-19T11:39:53;101435.28;;;25.29;100.00
35647;BME280;28680;45.642;13.756;2023-05-19T11:42:19;101436.97;;;25.30;100.00
35647;BME280;28680;45.642;13.756;2023-05-19T11:44:46;101425.91;;;25.12;100.00
35647;BME280;28680;45.642;13.756;2023-05-19T11:47:15;101427.72;;;25.04;100.00
35647;BME280;28680;45.642;13.756;2023-05-19T11:49:47;101414.91;;;25.00;100.00
35647;BME280;28680;45.642;13.756;2023-05-19T11:52:13;101424.16;;;25.32;100.00
35647;BME280;28680;45.642;13.756;2023-05-19T11:54:39;101429.13;;;25.35;100.00
35647;BME280;28680;45.642;13.756;2023-05-19T11:57:08;101416.78;;;25.54;90.84
35647;BME280;28680;45.642;13.756;2023-05-19T11:59:38;101421.91;;;25.42;100.00
35647;BME280;28680;45.642;13.756;2023-05-19T12:04:50;101419.03;;;25.44;100.00
35647;BME280;28680;45.642;13.756;2023-05-19T12:07:19;101408.66;;;25.27;92.46
35647;BME280;28680;45.642;13.756;2023-05-19T12:09:49;101415.28;;;25.32;100.00
35647;BME280;28680;45.642;13.756;2023-05-19T12:12:19;101416.72;;;25.27;100.00
35647;BME280;28680;45.642;13.756;2023-05-19T12:14:50;101413.41;;;25.32;100.00
35647;BME280;28680;45.642;13.756;2023-05-19T12:17:19;101404.84;;;25.08;100.00
35647;BME280;28680;45.642;13.756;2023-05-19T12:19:47;101413.50;;;25.10;100.00
35647;BME280;28680;45.642;13.756;2023-05-19T12:22:17;101408.88;;;25.39;95.79
35647;BME280;28680;45.642;13.756;2023-05-19T12:24:44;101406.03;;;25.61;97.40
35647;BME280;28680;45.642;13.756;2023-05-19T12:29:51;101416.78;;;25.61;100.00
35647;BME280;28680;45.642;13.756;2023-05-19T12:32:18;101412.47;;;25.66;100.00
35647;BME280;28680;45.642;13.756;2023-05-19T12:34:44;101406.75;;;25.96;92.73
35647;BME280;28680;45.642;13.756;2023-05-19T12:37:10;101406.50;;;26.51;82.17
35647;BME280;28680;45.642;13.756;2023-05-19T12:39:41;101409.59;;;26.48;84.97
35647;BME280;28680;45.642;13.756;2023-05-19T12:42:09;101406.94;;;26.41;91.58
35647;BME280;28680;45.642;13.756;2023-05-19T12:44:46;101400.94;;;26.33;93.11
35647;BME280;28680;45.642;13.756;2023-05-19T12:47:14;101404.66;;;25.92;100.00
35647;BME280;28680;45.642;13.756;2023-05-19T12:52:26;101407.38;;;26.12;96.65
35647;BME280;28680;45.642;13.756;2023-05-19T12:55:00;101407.16;;;26.47;83.87
35647;BME280;28680;45.642;13.756;2023-05-19T12:57:29;101414.19;;;26.34;100.00
35647;BME280;28680;45.642;13.756;2023-05-19T13:00:19;101424.31;;;26.45;75.35
35647;BME280;28680;45.642;13.756;2023-05-19T13:03:06;101408.56;;;26.49;82.91
35647;BME280;28680;45.642;13.756;2023-05-19T13:05:37;101416.25;;;26.25;98.63
35647;BME280;28680;45.642;13.756;2023-05-19T13:08:08;101425.38;;;26.24;100.00
35647;BME280;28680;45.642;13.756;2023-05-19T13:10:36;101423.31;;;26.26;89.53